sensor_id;sensor_type;location;lat;lon;timestamp;temperature;humidity
61207;DHT22;47070;49.212;8.084;2023-02-22T00:04:04;7.20;99.90
61207;DHT22;47070;49.212;8.084;2023-02-22T00:08:06;7.10;99.90
61207;DHT22;47070;49.212;8.084;2023-02-22T00:12:10;7.00;99.90
61207;DHT22;47070;49.212;8.084;2023-02-22T00:16:15;6.90;99.90
61207;DHT22;47070;49.212;8.084;2023-02-22T00:20:16;7.10;99.90
61207;DHT22;47070;49.212;8.084;2023-02-22T00:24:18;7.30;99.90
61207;DHT22;47070;49.212;8.084;2023-02-22T00:28:22;7.10;99.90
61207;DHT22;47070;49.212;8.084;2023-02-22T00:32:25;7.20;99.90
61207;DHT22;47070;49.212;8.084;2023-02-22T00:36:26;7.20;99.90
61207;DHT22;47070;49.212;8.084;2023-02-22T00:40:28;7.20;99.90
61207;DHT22;47070;49.212;8.084;2023-02-22T00:44:29;7.00;99.90
61207;DHT22;47070;49.212;8.084;2023-02-22T00:48:30;6.70;99.90
61207;DHT22;47070;49.212;8.084;2023-02-22T00:52:30;6.70;99.90
61207;DHT22;47070;49.212;8.084;2023-02-22T00:56:31;6.50;99.90
61207;DHT22;47070;49.212;8.084;2023-02-22T01:00:34;6.50;99.90
61207;DHT22;47070;49.212;8.084;2023-02-22T01:04:36;6.60;99.90
61207;DHT22;47070;49.212;8.084;2023-02-22T01:08:36;6.90;99.90
61207;DHT22;47070;49.212;8.084;2023-02-22T01:12:37;6.80;99.90
61207;DHT22;47070;49.212;8.084;2023-02-22T01:16:37;6.90;99.90
61207;DHT22;47070;49.212;8.084;2023-02-22T01:20:38;6.70;99.90
61207;DHT22;47070;49.212;8.084;2023-02-22T01:24:38;6.70;99.90
61207;DHT22;47070;49.212;8.084;2023-02-22T01:28:39;6.70;99.90
61207;DHT22;47070;49.212;8.084;2023-02-22T01:32:39;6.70;99.90
61207;DHT22;47070;49.212;8.084;2023-02-22T01:36:40;6.70;99.90
61207;DHT22;47070;49.212;8.084;2023-02-22T01:40:42;6.60;99.90
61207;DHT22;47070;49.212;8.084;2023-02-22T01:44:43;6.30;99.90
61207;DHT22;47070;49.212;8.084;2023-02-22T01:48:44;6.40;99.90
61207;DHT22;47070;49.212;8.084;2023-02-22T01:52:45;6.20;99.90
61207;DHT22;47070;49.212;8.084;2023-02-22T01:56:47;6.20;99.90
61207;DHT22;47070;49.212;8.084;2023-02-22T02:00:49;6.00;99.90
61207;DHT22;47070;49.212;8.084;2023-02-22T02:04:50;6.10;99.90
61207;DHT22;47070;49.212;8.084;2023-02-22T02:09:03;6.30;99.90
61207;DHT22;47070;49.212;8.084;2023-02-22T02:13:04;6.10;99.90
61207;DHT22;47070;49.212;8.084;2023-02-22T02:17:06;6.10;99.90
61207;DHT22;47070;49.212;8.084;2023-02-22T02:29:33;5.90;99.90
61207;DHT22;47070;49.212;8.084;2023-02-22T02:37:55;6.10;99.90
61207;DHT22;47070;49.212;8.084;2023-02-22T02:41:56;6.20;99.90
61207;DHT22;47070;49.212;8.084;2023-02-22T02:46:02;6.30;99.90
61207;DHT22;47070;49.212;8.084;2023-02-22T02:50:07;6.30;99.90
61207;DHT22;47070;49.212;8.084;2023-02-22T02:54:09;6.30;99.90
61207;DHT22;47070;49.212;8.084;2023-02-22T02:58:15;6.30;99.90
61207;DHT22;47070;49.212;8.084;2023-02-22T03:06:30;6.00;99.90
61207;DHT22;47070;49.212;8.084;2023-02-22T03:10:45;5.90;99.90
61207;DHT22;47070;49.212;8.084;2023-02-22T03:14:52;6.00;99.90
61207;DHT22;47070;49.212;8.084;2023-02-22T03:19:08;6.10;99.90
61207;DHT22;47070;49.212;8.084;2023-02-22T03:23:21;5.90;99.90
61207;DHT22;47070;49.212;8.084;2023-02-22T03:27:36;5.70;99.90
61207;DHT22;47070;49.212;8.084;2023-02-22T03:31:47;5.90;99.90
61207;DHT22;47070;49.212;8.084;2023-02-22T03:35:50;5.90;99.90
61207;DHT22;47070;49.212;8.084;2023-02-22T03:39:55;5.90;99.90
61207;DHT22;47070;49.212;8.084;2023-02-22T03:43:59;5.80;99.90
61207;DHT22;47070;49.212;8.084;2023-02-22T03:48:13;5.80;99.90
61207;DHT22;47070;49.212;8.084;2023-02-22T03:52:15;5.70;99.90
61207;DHT22;47070;49.212;8.084;2023-02-22T03:56:27;5.70;99.90
61207;DHT22;47070;49.212;8.084;2023-02-22T04:00:34;5.80;99.90
61207;DHT22;47070;49.212;8.084;2023-02-22T04:04:35;5.90;99.90
61207;DHT22;47070;49.212;8.084;2023-02-22T04:08:35;5.90;99.90
61207;DHT22;47070;49.212;8.084;2023-02-22T04:12:36;5.70;99.90
61207;DHT22;47070;49.212;8.084;2023-02-22T04:16:37;5.80;99.90
61207;DHT22;47070;49.212;8.084;2023-02-22T04:20:37;5.60;99.90
61207;DHT22;47070;49.212;8.084;2023-02-22T04:24:37;5.70;99.90
61207;DHT22;47070;49.212;8.084;2023-02-22T04:28:38;5.60;99.90
61207;DHT22;47070;49.212;8.084;2023-02-22T04:32:38;5.40;99.90
61207;DHT22;47070;49.212;8.084;2023-02-22T04:36:39;5.30;99.90
61207;DHT22;47070;49.212;8.084;2023-02-22T04:40:41;5.50;99.90
61207;DHT22;47070;49.212;8.084;2023-02-22T04:44:41;5.50;99.90
61207;DHT22;47070;49.212;8.084;2023-02-22T04:48:42;5.60;99.90
61207;DHT22;47070;49.212;8.084;2023-02-22T04:52:42;5.70;99.90
61207;DHT22;47070;49.212;8.084;2023-02-22T04:56:43;5.70;99.90
61207;DHT22;47070;49.212;8.084;2023-02-22T05:00:43;5.60;99.90
61207;DHT22;47070;49.212;8.084;2023-02-22T05:04:44;5.60;99.90
61207;DHT22;47070;49.212;8.084;2023-02-22T05:08:44;5.60;99.90
61207;DHT22;47070;49.212;8.084;2023-02-22T05:12:45;5.40;99.90
61207;DHT22;47070;49.212;8.084;2023-02-22T05:16:47;5.30;99.90
61207;DHT22;47070;49.212;8.084;2023-02-22T05:20:47;5.40;99.90
61207;DHT22;47070;49.212;8.084;2023-02-22T05:24:48;5.60;99.90
61207;DHT22;47070;49.212;8.084;2023-02-22T05:28:48;5.50;99.90
61207;DHT22;47070;49.212;8.084;2023-02-22T05:32:49;5.60;99.90
61207;DHT22;47070;49.212;8.084;2023-02-22T05:36:49;5.50;99.90
61207;DHT22;47070;49.212;8.084;2023-02-22T05:40:50;5.20;99.90
61207;DHT22;47070;49.212;8.084;2023-02-22T05:44:50;5.20;99.90
61207;DHT22;47070;49.212;8.084;2023-02-22T05:48:51;5.10;99.90
61207;DHT22;47070;49.212;8.084;2023-02-22T05:52:52;5.20;99.90
61207;DHT22;47070;49.212;8.084;2023-02-22T05:56:52;5.40;99.90
61207;DHT22;47070;49.212;8.084;2023-02-22T06:00:53;5.40;99.90
61207;DHT22;47070;49.212;8.084;2023-02-22T06:04:53;5.40;99.90
61207;DHT22;47070;49.212;8.084;2023-02-22T06:08:54;5.40;99.90
61207;DHT22;47070;49.212;8.084;2023-02-22T06:12:55;5.40;99.90
61207;DHT22;47070;49.212;8.084;2023-02-22T06:16:56;5.20;99.90
61207;DHT22;47070;49.212;8.084;2023-02-22T06:20:57;4.90;99.90
61207;DHT22;47070;49.212;8.084;2023-02-22T06:24:57;5.20;99.90
61207;DHT22;47070;49.212;8.084;2023-02-22T06:28:58;5.30;99.90
61207;DHT22;47070;49.212;8.084;2023-02-22T06:32:58;5.30;99.90
61207;DHT22;47070;49.212;8.084;2023-02-22T06:36:59;5.20;99.90
61207;DHT22;47070;49.212;8.084;2023-02-22T06:40:59;5.20;99.90
61207;DHT22;47070;49.212;8.084;2023-02-22T06:45:02;5.30;99.90
61207;DHT22;47070;49.212;8.084;2023-02-22T06:49:02;5.50;99.90
61207;DHT22;47070;49.212;8.084;2023-02-22T06:53:03;5.40;99.90
61207;DHT22;47070;49.212;8.084;2023-02-22T06:57:04;5.50;99.90
61207;DHT22;47070;49.212;8.084;2023-02-22T07:01:04;5.60;99.90
61207;DHT22;47070;49.212;8.084;2023-02-22T07:05:06;6.00;99.90
61207;DHT22;47070;49.212;8.084;2023-02-22T07:09:08;5.90;99.90
61207;DHT22;47070;49.212;8.084;2023-02-22T07:13:09;6.10;99.90
61207;DHT22;47070;49.212;8.084;2023-02-22T07:17:10;6.10;99.90
61207;DHT22;47070;49.212;8.084;2023-02-22T07:21:10;7.90;99.90
61207;DHT22;47070;49.212;8.084;2023-02-22T07:25:11;7.40;99.90
61207;DHT22;47070;49.212;8.084;2023-02-22T07:29:11;7.40;99.90
61207;DHT22;47070;49.212;8.084;2023-02-22T07:33:12;7.20;99.90
61207;DHT22;47070;49.212;8.084;2023-02-22T07:37:12;7.60;99.90
61207;DHT22;47070;49.212;8.084;2023-02-22T07:41:13;7.40;99.90
61207;DHT22;47070;49.212;8.084;2023-02-22T07:45:13;7.30;99.90
61207;DHT22;47070;49.212;8.084;2023-02-22T07:49:14;7.70;99.90
61207;DHT22;47070;49.212;8.084;2023-02-22T07:53:21;7.60;99.90
61207;DHT22;47070;49.212;8.084;2023-02-22T07:57:22;7.40;99.90
61207;DHT22;47070;49.212;8.084;2023-02-22T08:01:23;7.50;99.90
61207;DHT22;47070;49.212;8.084;2023-02-22T08:05:24;7.50;99.90
61207;DHT22;47070;49.212;8.084;2023-02-22T08:09:25;7.90;99.90
61207;DHT22;47070;49.212;8.084;2023-02-22T08:13:26;8.30;99.90
61207;DHT22;47070;49.212;8.084;2023-02-22T08:17:26;8.80;99.90
61207;DHT22;47070;49.212;8.084;2023-02-22T08:21:27;9.10;99.90
61207;DHT22;47070;49.212;8.084;2023-02-22T08:25:28;9.30;99.90
61207;DHT22;47070;49.212;8.084;2023-02-22T08:29:28;9.90;99.90
61207;DHT22;47070;49.212;8.084;2023-02-22T08:33:32;9.70;99.90
61207;DHT22;47070;49.212;8.084;2023-02-22T08:37:34;9.80;99.90
61207;DHT22;47070;49.212;8.084;2023-02-22T08:41:34;9.90;99.90
61207;DHT22;47070;49.212;8.084;2023-02-22T08:45:35;10.30;99.90
61207;DHT22;47070;49.212;8.084;2023-02-22T08:49:35;10.20;99.90
61207;DHT22;47070;49.212;8.084;2023-02-22T08:53:36;10.50;99.90
61207;DHT22;47070;49.212;8.084;2023-02-22T08:57:37;10.40;99.90
61207;DHT22;47070;49.212;8.084;2023-02-22T09:01:37;10.50;99.90
61207;DHT22;47070;49.212;8.084;2023-02-22T09:05:37;10.90;99.90
61207;DHT22;47070;49.212;8.084;2023-02-22T09:09:38;11.10;99.90
61207;DHT22;47070;49.212;8.084;2023-02-22T09:13:38;10.90;99.90
61207;DHT22;47070;49.212;8.084;2023-02-22T09:17:39;11.30;99.90
61207;DHT22;47070;49.212;8.084;2023-02-22T09:21:39;11.20;99.90
61207;DHT22;47070;49.212;8.084;2023-02-22T09:25:40;11.00;99.90
61207;DHT22;47070;49.212;8.084;2023-02-22T09:29:40;11.30;99.90
61207;DHT22;47070;49.212;8.084;2023-02-22T09:33:41;11.30;99.90
61207;DHT22;47070;49.212;8.084;2023-02-22T09:37:41;11.50;99.90
61207;DHT22;47070;49.212;8.084;2023-02-22T09:41:53;11.90;99.90
61207;DHT22;47070;49.212;8.084;2023-02-22T09:54:02;12.00;99.90
61207;DHT22;47070;49.212;8.084;2023-02-22T09:58:25;12.10;99.90
61207;DHT22;47070;49.212;8.084;2023-02-22T10:02:28;12.00;99.90
61207;DHT22;47070;49.212;8.084;2023-02-22T10:06:30;12.40;99.90
61207;DHT22;47070;49.212;8.084;2023-02-22T10:10:37;12.10;99.90
61207;DHT22;47070;49.212;8.084;2023-02-22T10:14:51;12.80;99.90
61207;DHT22;47070;49.212;8.084;2023-02-22T10:27:14;13.00;99.90
61207;DHT22;47070;49.212;8.084;2023-02-22T10:31:20;13.30;99.90
61207;DHT22;47070;49.212;8.084;2023-02-22T10:35:26;13.40;99.90
61207;DHT22;47070;49.212;8.084;2023-02-22T10:43:27;14.00;99.90
61207;DHT22;47070;49.212;8.084;2023-02-22T10:47:28;14.40;99.90
61207;DHT22;47070;49.212;8.084;2023-02-22T10:51:29;14.40;99.90
61207;DHT22;47070;49.212;8.084;2023-02-22T10:55:29;14.10;99.90
61207;DHT22;47070;49.212;8.084;2023-02-22T10:59:34;14.80;99.90
61207;DHT22;47070;49.212;8.084;2023-02-22T11:03:34;15.00;99.90
61207;DHT22;47070;49.212;8.084;2023-02-22T11:07:35;14.80;99.90
61207;DHT22;47070;49.212;8.084;2023-02-22T11:11:36;14.90;99.90
61207;DHT22;47070;49.212;8.084;2023-02-22T11:15:37;14.70;99.90
61207;DHT22;47070;49.212;8.084;2023-02-22T11:19:37;15.50;99.90
61207;DHT22;47070;49.212;8.084;2023-02-22T11:23:44;15.20;99.90
61207;DHT22;47070;49.212;8.084;2023-02-22T11:27:45;15.60;99.90
61207;DHT22;47070;49.212;8.084;2023-02-22T11:31:46;15.50;99.90
61207;DHT22;47070;49.212;8.084;2023-02-22T11:44:13;15.30;99.90
61207;DHT22;47070;49.212;8.084;2023-02-22T11:48:17;16.00;99.90
61207;DHT22;47070;49.212;8.084;2023-02-22T11:52:22;15.80;99.90
61207;DHT22;47070;49.212;8.084;2023-02-22T11:56:26;16.10;99.90
61207;DHT22;47070;49.212;8.084;2023-02-22T12:00:44;16.70;99.90
61207;DHT22;47070;49.212;8.084;2023-02-22T12:04:53;16.40;99.90
61207;DHT22;47070;49.212;8.084;2023-02-22T12:21:19;17.40;99.90
61207;DHT22;47070;49.212;8.084;2023-02-22T12:25:24;17.30;99.90
61207;DHT22;47070;49.212;8.084;2023-02-22T12:29:27;17.10;99.90
61207;DHT22;47070;49.212;8.084;2023-02-22T12:33:31;17.70;98.90
61207;DHT22;47070;49.212;8.084;2023-02-22T12:41:41;17.80;98.50
61207;DHT22;47070;49.212;8.084;2023-02-22T12:46:01;17.10;98.50
61207;DHT22;47070;49.212;8.084;2023-02-22T12:50:05;17.30;98.10
61207;DHT22;47070;49.212;8.084;2023-02-22T12:58:35;17.50;98.10
61207;DHT22;47070;49.212;8.084;2023-02-22T13:02:40;17.10;96.50
61207;DHT22;47070;49.212;8.084;2023-02-22T13:10:54;17.30;97.40
61207;DHT22;47070;49.212;8.084;2023-02-22T13:23:04;17.10;96.00
61207;DHT22;47070;49.212;8.084;2023-02-22T13:27:12;17.50;97.60
61207;DHT22;47070;49.212;8.084;2023-02-22T13:44:05;18.10;97.10
61207;DHT22;47070;49.212;8.084;2023-02-22T13:48:18;18.70;96.50
61207;DHT22;47070;49.212;8.084;2023-02-22T13:52:22;18.60;96.40
61207;DHT22;47070;49.212;8.084;2023-02-22T13:56:24;18.10;96.30
61207;DHT22;47070;49.212;8.084;2023-02-22T14:00:38;18.30;96.50
61207;DHT22;47070;49.212;8.084;2023-02-22T14:04:40;18.10;95.80
61207;DHT22;47070;49.212;8.084;2023-02-22T14:08:41;17.90;95.90
61207;DHT22;47070;49.212;8.084;2023-02-22T14:12:46;18.20;95.50
61207;DHT22;47070;49.212;8.084;2023-02-22T14:17:14;18.20;96.10
61207;DHT22;47070;49.212;8.084;2023-02-22T14:21:11;18.20;95.50
61207;DHT22;47070;49.212;8.084;2023-02-22T14:25:30;18.10;96.60
61207;DHT22;47070;49.212;8.084;2023-02-22T14:29:31;18.00;95.90
61207;DHT22;47070;49.212;8.084;2023-02-22T14:37:52;17.50;97.00
61207;DHT22;47070;49.212;8.084;2023-02-22T14:42:10;17.70;96.80
61207;DHT22;47070;49.212;8.084;2023-02-22T14:46:13;17.40;96.70
61207;DHT22;47070;49.212;8.084;2023-02-22T14:50:20;17.30;97.00
61207;DHT22;47070;49.212;8.084;2023-02-22T14:54:29;17.30;97.30
61207;DHT22;47070;49.212;8.084;2023-02-22T14:58:36;17.30;97.80
61207;DHT22;47070;49.212;8.084;2023-02-22T15:02:39;17.30;97.90
61207;DHT22;47070;49.212;8.084;2023-02-22T15:06:40;17.30;97.50
61207;DHT22;47070;49.212;8.084;2023-02-22T15:10:42;17.10;98.00
61207;DHT22;47070;49.212;8.084;2023-02-22T15:14:43;16.70;97.70
61207;DHT22;47070;49.212;8.084;2023-02-22T15:18:47;16.60;98.80
61207;DHT22;47070;49.212;8.084;2023-02-22T15:22:48;16.60;99.20
61207;DHT22;47070;49.212;8.084;2023-02-22T15:26:49;17.00;98.00
61207;DHT22;47070;49.212;8.084;2023-02-22T15:30:50;16.70;98.40
61207;DHT22;47070;49.212;8.084;2023-02-22T15:34:50;17.00;98.90
61207;DHT22;47070;49.212;8.084;2023-02-22T15:38:51;17.10;98.50
61207;DHT22;47070;49.212;8.084;2023-02-22T15:42:52;16.90;98.90
61207;DHT22;47070;49.212;8.084;2023-02-22T15:46:53;16.90;99.40
61207;DHT22;47070;49.212;8.084;2023-02-22T15:51:00;16.90;99.30
61207;DHT22;47070;49.212;8.084;2023-02-22T15:55:03;16.60;99.90
61207;DHT22;47070;49.212;8.084;2023-02-22T15:59:12;16.40;99.90
61207;DHT22;47070;49.212;8.084;2023-02-22T16:03:14;16.30;99.90
61207;DHT22;47070;49.212;8.084;2023-02-22T16:07:15;16.50;99.90
61207;DHT22;47070;49.212;8.084;2023-02-22T16:11:20;16.30;99.90
61207;DHT22;47070;49.212;8.084;2023-02-22T16:15:21;16.50;99.90
61207;DHT22;47070;49.212;8.084;2023-02-22T16:19:31;16.30;99.90
61207;DHT22;47070;49.212;8.084;2023-02-22T16:23:42;16.10;99.90
61207;DHT22;47070;49.212;8.084;2023-02-22T16:27:44;16.60;99.90
61207;DHT22;47070;49.212;8.084;2023-02-22T16:31:47;16.70;99.90
61207;DHT22;47070;49.212;8.084;2023-02-22T16:35:48;16.80;99.90
61207;DHT22;47070;49.212;8.084;2023-02-22T16:39:51;16.50;99.90
61207;DHT22;47070;49.212;8.084;2023-02-22T16:43:52;16.90;99.90
61207;DHT22;47070;49.212;8.084;2023-02-22T16:47:53;16.40;99.90
61207;DHT22;47070;49.212;8.084;2023-02-22T16:51:54;16.60;99.90
61207;DHT22;47070;49.212;8.084;2023-02-22T16:55:56;16.10;99.90
61207;DHT22;47070;49.212;8.084;2023-02-22T16:59:58;15.50;99.90
61207;DHT22;47070;49.212;8.084;2023-02-22T17:03:58;15.80;99.90
61207;DHT22;47070;49.212;8.084;2023-02-22T17:07:59;15.50;99.90
61207;DHT22;47070;49.212;8.084;2023-02-22T17:12:00;15.90;99.90
61207;DHT22;47070;49.212;8.084;2023-02-22T17:16:01;15.60;99.90
61207;DHT22;47070;49.212;8.084;2023-02-22T17:20:01;15.90;99.90
61207;DHT22;47070;49.212;8.084;2023-02-22T17:24:09;16.50;99.90
61207;DHT22;47070;49.212;8.084;2023-02-22T17:28:11;16.70;99.90
61207;DHT22;47070;49.212;8.084;2023-02-22T17:32:12;16.50;99.90
61207;DHT22;47070;49.212;8.084;2023-02-22T17:36:12;16.40;99.90
61207;DHT22;47070;49.212;8.084;2023-02-22T17:40:13;15.90;99.90
61207;DHT22;47070;49.212;8.084;2023-02-22T17:44:13;16.00;99.90
61207;DHT22;47070;49.212;8.084;2023-02-22T17:48:14;15.70;99.90
61207;DHT22;47070;49.212;8.084;2023-02-22T17:52:15;15.60;99.90
61207;DHT22;47070;49.212;8.084;2023-02-22T17:56:16;15.60;99.90
61207;DHT22;47070;49.212;8.084;2023-02-22T18:00:17;15.40;99.90
61207;DHT22;47070;49.212;8.084;2023-02-22T18:04:23;15.10;99.90
61207;DHT22;47070;49.212;8.084;2023-02-22T18:08:27;15.30;99.90
61207;DHT22;47070;49.212;8.084;2023-02-22T18:12:28;14.70;99.90
61207;DHT22;47070;49.212;8.084;2023-02-22T18:16:29;14.80;99.90
61207;DHT22;47070;49.212;8.084;2023-02-22T18:20:29;15.00;99.90
61207;DHT22;47070;49.212;8.084;2023-02-22T18:24:31;15.30;99.90
61207;DHT22;47070;49.212;8.084;2023-02-22T18:28:32;14.80;99.90
61207;DHT22;47070;49.212;8.084;2023-02-22T18:32:33;15.00;99.90
61207;DHT22;47070;49.212;8.084;2023-02-22T18:36:33;14.90;99.90
61207;DHT22;47070;49.212;8.084;2023-02-22T18:40:34;14.70;99.90
61207;DHT22;47070;49.212;8.084;2023-02-22T18:44:34;14.80;99.90
61207;DHT22;47070;49.212;8.084;2023-02-22T18:48:34;14.80;99.90
61207;DHT22;47070;49.212;8.084;2023-02-22T18:52:35;15.10;99.90
61207;DHT22;47070;49.212;8.084;2023-02-22T18:56:44;15.10;99.90
61207;DHT22;47070;49.212;8.084;2023-02-22T19:00:46;15.50;99.90
61207;DHT22;47070;49.212;8.084;2023-02-22T19:04:47;16.10;99.90
61207;DHT22;47070;49.212;8.084;2023-02-22T19:08:48;15.70;99.90
61207;DHT22;47070;49.212;8.084;2023-02-22T19:12:49;15.80;99.90
61207;DHT22;47070;49.212;8.084;2023-02-22T19:16:50;15.50;99.90
61207;DHT22;47070;49.212;8.084;2023-02-22T19:20:56;15.30;99.90
61207;DHT22;47070;49.212;8.084;2023-02-22T19:24:57;15.40;99.90
61207;DHT22;47070;49.212;8.084;2023-02-22T19:28:59;15.20;99.90
61207;DHT22;47070;49.212;8.084;2023-02-22T19:33:00;15.40;99.90
61207;DHT22;47070;49.212;8.084;2023-02-22T19:37:04;15.10;99.90
61207;DHT22;47070;49.212;8.084;2023-02-22T19:41:05;15.00;99.90
61207;DHT22;47070;49.212;8.084;2023-02-22T19:45:07;15.00;99.90
61207;DHT22;47070;49.212;8.084;2023-02-22T19:49:08;14.80;99.90
61207;DHT22;47070;49.212;8.084;2023-02-22T19:53:08;15.00;99.90
61207;DHT22;47070;49.212;8.084;2023-02-22T19:57:13;14.70;99.90
61207;DHT22;47070;49.212;8.084;2023-02-22T20:05:14;15.10;99.90
61207;DHT22;47070;49.212;8.084;2023-02-22T20:09:16;14.70;99.90
61207;DHT22;47070;49.212;8.084;2023-02-22T20:13:17;14.50;99.90
61207;DHT22;47070;49.212;8.084;2023-02-22T20:17:18;14.50;99.90
61207;DHT22;47070;49.212;8.084;2023-02-22T20:21:39;14.30;99.90
61207;DHT22;47070;49.212;8.084;2023-02-22T20:25:39;14.50;99.90
61207;DHT22;47070;49.212;8.084;2023-02-22T20:29:40;14.50;99.90
61207;DHT22;47070;49.212;8.084;2023-02-22T20:33:44;14.60;99.90
61207;DHT22;47070;49.212;8.084;2023-02-22T20:37:45;13.90;99.90
61207;DHT22;47070;49.212;8.084;2023-02-22T20:41:45;13.60;99.90
61207;DHT22;47070;49.212;8.084;2023-02-22T20:45:46;13.50;99.90
61207;DHT22;47070;49.212;8.084;2023-02-22T20:49:46;14.70;99.90
61207;DHT22;47070;49.212;8.084;2023-02-22T20:53:47;15.40;99.90
61207;DHT22;47070;49.212;8.084;2023-02-22T20:57:48;15.30;99.90
61207;DHT22;47070;49.212;8.084;2023-02-22T21:01:48;15.90;99.90
61207;DHT22;47070;49.212;8.084;2023-02-22T21:05:49;15.50;99.90
61207;DHT22;47070;49.212;8.084;2023-02-22T21:09:49;15.60;99.90
61207;DHT22;47070;49.212;8.084;2023-02-22T21:13:50;15.70;99.90
61207;DHT22;47070;49.212;8.084;2023-02-22T21:17:51;15.80;99.90
61207;DHT22;47070;49.212;8.084;2023-02-22T21:21:53;16.00;99.90
61207;DHT22;47070;49.212;8.084;2023-02-22T21:25:54;15.80;99.90
61207;DHT22;47070;49.212;8.084;2023-02-22T21:29:56;15.80;99.90
61207;DHT22;47070;49.212;8.084;2023-02-22T21:33:58;16.20;99.90
61207;DHT22;47070;49.212;8.084;2023-02-22T21:37:59;15.90;99.90
61207;DHT22;47070;49.212;8.084;2023-02-22T21:41:59;15.20;99.90
61207;DHT22;47070;49.212;8.084;2023-02-22T21:46:00;15.00;99.90
61207;DHT22;47070;49.212;8.084;2023-02-22T21:50:02;15.20;99.90
61207;DHT22;47070;49.212;8.084;2023-02-22T21:54:04;15.30;99.90
61207;DHT22;47070;49.212;8.084;2023-02-22T21:58:05;15.40;99.90
61207;DHT22;47070;49.212;8.084;2023-02-22T22:02:05;15.60;99.90
61207;DHT22;47070;49.212;8.084;2023-02-22T22:06:06;15.80;99.90
61207;DHT22;47070;49.212;8.084;2023-02-22T22:10:10;16.10;99.90
61207;DHT22;47070;49.212;8.084;2023-02-22T22:14:14;15.90;99.90
61207;DHT22;47070;49.212;8.084;2023-02-22T22:18:14;15.60;99.90
61207;DHT22;47070;49.212;8.084;2023-02-22T22:22:15;15.50;99.90
61207;DHT22;47070;49.212;8.084;2023-02-22T22:26:16;15.30;99.90
61207;DHT22;47070;49.212;8.084;2023-02-22T22:30:17;14.80;99.90
61207;DHT22;47070;49.212;8.084;2023-02-22T22:34:17;14.50;99.90
61207;DHT22;47070;49.212;8.084;2023-02-22T22:38:18;14.60;99.90
61207;DHT22;47070;49.212;8.084;2023-02-22T22:42:19;14.60;99.90
61207;DHT22;47070;49.212;8.084;2023-02-22T22:46:20;14.80;99.90
61207;DHT22;47070;49.212;8.084;2023-02-22T22:50:20;14.30;99.90
61207;DHT22;47070;49.212;8.084;2023-02-22T22:54:25;14.70;99.90
61207;DHT22;47070;49.212;8.084;2023-02-22T22:58:26;14.50;99.90
61207;DHT22;47070;49.212;8.084;2023-02-22T23:02:26;14.70;99.90
61207;DHT22;47070;49.212;8.084;2023-02-22T23:06:29;15.20;99.90
61207;DHT22;47070;49.212;8.084;2023-02-22T23:10:31;15.10;99.90
61207;DHT22;47070;49.212;8.084;2023-02-22T23:14:31;15.10;99.90
61207;DHT22;47070;49.212;8.084;2023-02-22T23:18:32;15.00;99.90
61207;DHT22;47070;49.212;8.084;2023-02-22T23:22:33;14.80;99.90
61207;DHT22;47070;49.212;8.084;2023-02-22T23:26:34;14.90;99.90
61207;DHT22;47070;49.212;8.084;2023-02-22T23:30:36;14.40;99.90
61207;DHT22;47070;49.212;8.084;2023-02-22T23:34:36;14.10;99.90
61207;DHT22;47070;49.212;8.084;2023-02-22T23:38:40;13.80;99.90
61207;DHT22;47070;49.212;8.084;2023-02-22T23:42:48;13.80;99.90
61207;DHT22;47070;49.212;8.084;2023-02-22T23:46:48;13.80;99.90
61207;DHT22;47070;49.212;8.084;2023-02-22T23:50:54;13.80;99.90
61207;DHT22;47070;49.212;8.084;2023-02-22T23:54:58;13.70;99.90
61207;DHT22;47070;49.212;8.084;2023-02-22T23:59:02;13.60;99.90
